createdAt,value
2018-09-30T00:00:07.196Z,49.30
2018-09-30T00:02:35.759Z,49.30
2018-09-30T00:05:04.342Z,49.90
2018-09-30T00:07:32.888Z,49.40
2018-09-30T00:10:01.469Z,49.90
2018-09-30T00:12:30.017Z,50.00
2018-09-30T00:14:58.585Z,50.00
2018-09-30T00:17:27.180Z,49.90
2018-09-30T00:19:55.748Z,50.00
2018-09-30T00:22:24.387Z,50.00
2018-09-30T00:24:58.128Z,49.90
2018-09-30T00:27:26.714Z,50.00
2018-09-30T00:29:55.394Z,50.00
2018-09-30T00:32:23.959Z,50.00
2018-09-30T00:34:52.591Z,50.00
2018-09-30T00:37:21.208Z,50.10
2018-09-30T00:39:49.733Z,50.10
2018-09-30T00:42:18.260Z,50.10
2018-09-30T00:44:47.067Z,50.10
2018-09-30T00:47:15.774Z,49.50
2018-09-30T00:49:44.672Z,50.10
2018-09-30T00:52:13.341Z,49.60
2018-09-30T00:54:41.932Z,50.10
2018-09-30T00:57:10.505Z,49.50
2018-09-30T00:59:39.088Z,50.10
2018-09-30T01:02:07.668Z,50.10
2018-09-30T01:04:36.304Z,50.10
2018-09-30T01:07:04.847Z,49.60
2018-09-30T01:09:33.463Z,49.50
2018-09-30T01:12:02.080Z,49.60
2018-09-30T01:14:30.659Z,49.60
2018-09-30T01:16:59.204Z,50.10
2018-09-30T01:19:27.784Z,49.50
2018-09-30T01:21:56.339Z,50.10
2018-09-30T01:24:24.906Z,50.10
2018-09-30T01:26:53.459Z,49.60
2018-09-30T01:29:22.031Z,49.60
2018-09-30T01:31:50.624Z,50.10
2018-09-30T01:34:19.179Z,50.10
2018-09-30T01:36:48.279Z,50.20
2018-09-30T01:39:16.812Z,49.70
2018-09-30T01:41:45.392Z,50.20
2018-09-30T01:44:13.972Z,50.20
2018-09-30T01:46:42.551Z,49.60
2018-09-30T01:49:11.130Z,50.20
2018-09-30T01:51:39.708Z,50.10
2018-09-30T01:54:08.299Z,50.10
2018-09-30T01:56:36.928Z,50.10
2018-09-30T01:59:05.457Z,50.20
2018-09-30T02:01:34.039Z,50.10
2018-09-30T02:04:02.617Z,50.20
2018-09-30T02:06:31.287Z,50.20
2018-09-30T02:08:59.827Z,50.20
2018-09-30T02:11:28.361Z,49.70
2018-09-30T02:13:56.947Z,50.20
2018-09-30T02:16:25.489Z,49.10
2018-09-30T02:18:54.103Z,46.30
2018-09-30T02:21:22.936Z,47.50
2018-09-30T02:23:51.499Z,48.20
2018-09-30T02:26:20.131Z,48.50
2018-09-30T02:28:48.687Z,49.10
2018-09-30T02:31:17.220Z,48.80
2018-09-30T02:33:45.831Z,49.40
2018-09-30T02:36:14.391Z,49.50
2018-09-30T02:38:42.953Z,49.60
2018-09-30T02:41:11.511Z,49.70
2018-09-30T02:43:40.101Z,49.30
2018-09-30T02:46:08.671Z,49.90
2018-09-30T02:48:37.279Z,49.90
2018-09-30T02:51:05.836Z,49.40
2018-09-30T02:53:34.623Z,50.00
2018-09-30T02:56:03.220Z,50.00
2018-09-30T02:58:31.781Z,50.00
2018-09-30T03:01:00.368Z,50.00
2018-09-30T03:03:28.907Z,50.00
2018-09-30T03:05:57.488Z,50.00
2018-09-30T03:08:31.404Z,49.50
2018-09-30T03:10:59.956Z,50.10
2018-09-30T03:13:28.535Z,49.60
2018-09-30T03:15:57.096Z,50.10
2018-09-30T03:18:25.703Z,49.60
2018-09-30T03:20:54.278Z,50.10
2018-09-30T03:23:22.821Z,50.10
2018-09-30T03:25:51.410Z,50.10
2018-09-30T03:28:19.959Z,50.10
2018-09-30T03:30:48.501Z,50.10
2018-09-30T03:33:17.068Z,50.10
2018-09-30T03:35:45.615Z,50.10
2018-09-30T03:38:14.174Z,50.10
2018-09-30T03:40:42.724Z,50.20
2018-09-30T03:43:11.321Z,50.10
2018-09-30T03:45:39.896Z,49.50
2018-09-30T03:48:08.564Z,50.10
2018-09-30T03:50:37.115Z,50.70
2018-09-30T03:53:05.658Z,50.10
2018-09-30T03:55:34.198Z,49.60
2018-09-30T03:58:02.878Z,50.10
2018-09-30T04:00:31.559Z,50.10
2018-09-30T04:03:00.093Z,50.10
2018-09-30T04:05:28.682Z,50.00
2018-09-30T04:07:57.339Z,50.10
2018-09-30T04:10:25.991Z,50.10
2018-09-30T04:12:54.592Z,49.60
2018-09-30T04:15:23.846Z,49.50
2018-09-30T04:17:52.424Z,49.50
2018-09-30T04:20:21.002Z,50.10
2018-09-30T04:22:49.622Z,49.50
2018-09-30T04:25:18.205Z,50.10
2018-09-30T04:27:46.745Z,50.10
2018-09-30T04:30:15.327Z,49.60
2018-09-30T04:32:43.887Z,50.10
2018-09-30T04:35:12.453Z,50.20
2018-09-30T04:37:41.004Z,50.20
2018-09-30T04:40:09.614Z,50.20
2018-09-30T04:42:38.232Z,50.20
2018-09-30T04:45:06.853Z,49.70
2018-09-30T04:47:35.399Z,50.30
2018-09-30T04:50:04.103Z,50.30
2018-09-30T04:52:32.586Z,49.70
2018-09-30T04:55:01.120Z,49.80
2018-09-30T04:57:29.704Z,49.80
2018-09-30T04:59:58.246Z,50.30
2018-09-30T05:02:26.861Z,49.70
2018-09-30T05:04:55.427Z,50.30
2018-09-30T05:07:24.076Z,49.70
2018-09-30T05:09:52.643Z,50.20
2018-09-30T05:12:21.237Z,50.30
2018-09-30T05:14:49.810Z,50.30
2018-09-30T05:17:18.487Z,49.70
2018-09-30T05:19:47.909Z,50.30
2018-09-30T05:22:16.666Z,50.20
2018-09-30T05:24:45.353Z,52.50
2018-09-30T05:27:13.915Z,53.10
2018-09-30T05:29:42.479Z,52.60
2018-09-30T05:32:11.159Z,52.30
2018-09-30T05:34:39.720Z,51.60
2018-09-30T05:37:08.349Z,51.90
2018-09-30T05:39:36.899Z,52.10
2018-09-30T05:42:05.480Z,51.00
2018-09-30T05:44:34.035Z,51.10
2018-09-30T05:47:02.632Z,51.20
2018-09-30T05:49:31.196Z,51.40
2018-09-30T05:51:59.771Z,51.60
2018-09-30T05:54:28.368Z,51.40
2018-09-30T05:56:56.895Z,48.50
2018-09-30T05:59:25.528Z,47.00
2018-09-30T06:01:54.079Z,47.10
2018-09-30T06:04:22.639Z,47.40
2018-09-30T06:06:51.204Z,47.70
2018-09-30T06:09:19.799Z,48.10
2018-09-30T06:11:48.407Z,47.50
2018-09-30T06:14:17.149Z,47.60
2018-09-30T06:16:45.619Z,48.10
2018-09-30T06:19:14.160Z,47.90
2018-09-30T06:21:42.751Z,48.40
2018-09-30T06:24:12.189Z,48.50
2018-09-30T06:26:41.117Z,48.60
2018-09-30T06:29:12.588Z,48.00
2018-09-30T06:31:41.190Z,48.50
2018-09-30T06:34:09.768Z,48.50
2018-09-30T06:36:38.473Z,48.60
2018-09-30T06:39:08.626Z,48.70
2018-09-30T06:41:37.330Z,48.80
2018-09-30T06:44:06.138Z,48.30
2018-09-30T06:46:34.723Z,48.80
2018-09-30T06:49:03.311Z,48.90
2018-09-30T06:51:31.854Z,48.90
2018-09-30T06:54:00.434Z,49.00
2018-09-30T06:56:28.990Z,49.00
2018-09-30T06:58:57.557Z,49.30
2018-09-30T07:01:26.157Z,48.90
2018-09-30T07:03:55.398Z,48.60
2018-09-30T07:06:24.380Z,48.40
2018-09-30T07:08:53.088Z,48.40
2018-09-30T07:11:21.656Z,48.50
2018-09-30T07:13:50.228Z,48.80
2018-09-30T07:16:19.775Z,48.20
2018-09-30T07:18:48.312Z,48.70
2018-09-30T07:21:16.909Z,48.00
2018-09-30T07:23:45.492Z,48.50
2018-09-30T07:26:14.831Z,48.30
2018-09-30T07:28:43.520Z,48.20
2018-09-30T07:31:12.109Z,48.10
2018-09-30T07:33:40.744Z,48.20
2018-09-30T07:36:09.295Z,48.00
2018-09-30T07:38:37.929Z,47.90
2018-09-30T07:41:06.501Z,49.10
2018-09-30T07:43:35.078Z,48.30
2018-09-30T07:46:03.629Z,48.40
2018-09-30T07:48:32.168Z,48.40
2018-09-30T07:51:00.764Z,48.30
2018-09-30T07:53:29.559Z,48.00
2018-09-30T07:55:58.197Z,47.80
2018-09-30T07:58:26.756Z,48.40
2018-09-30T08:00:55.743Z,47.80
2018-09-30T08:03:24.332Z,47.80
2018-09-30T08:05:53.044Z,48.00
2018-09-30T08:10:49.885Z,48.00
2018-09-30T08:13:18.444Z,48.50
2018-09-30T08:15:47.848Z,47.90
2018-09-30T08:18:16.988Z,48.40
2018-09-30T08:20:45.790Z,47.90
2018-09-30T08:23:14.514Z,48.50
2018-09-30T08:25:43.060Z,47.70
2018-09-30T08:28:11.591Z,48.30
2018-09-30T08:30:40.376Z,48.00
2018-09-30T08:33:09.096Z,48.10
2018-09-30T08:35:37.644Z,48.10
2018-09-30T08:38:11.575Z,48.00
2018-09-30T08:40:45.295Z,47.50
2018-09-30T08:43:13.863Z,47.50
2018-09-30T08:45:42.444Z,47.50
2018-09-30T08:48:11.060Z,47.60
2018-09-30T08:50:39.635Z,46.70
2018-09-30T08:53:08.217Z,46.90
2018-09-30T08:55:36.823Z,46.40
2018-09-30T08:58:05.416Z,46.60
2018-09-30T09:00:33.947Z,46.80
2018-09-30T09:03:03.399Z,47.30
2018-09-30T09:05:32.027Z,47.00
2018-09-30T09:08:00.765Z,47.20
2018-09-30T09:10:29.335Z,47.80
2018-09-30T09:12:58.139Z,47.80
2018-09-30T09:15:26.735Z,46.80
2018-09-30T09:17:55.306Z,47.30
2018-09-30T09:20:23.896Z,46.50
2018-09-30T09:22:52.587Z,46.90
2018-09-30T09:25:21.100Z,46.70
2018-09-30T09:27:49.719Z,46.80
2018-09-30T09:30:18.431Z,47.40
2018-09-30T09:32:47.012Z,47.10
2018-09-30T09:35:15.606Z,46.80
2018-09-30T09:37:44.491Z,47.00
2018-09-30T09:40:13.123Z,47.00
2018-09-30T09:42:41.655Z,47.50
2018-09-30T09:45:11.232Z,47.50
2018-09-30T09:47:39.832Z,47.60
2018-09-30T09:50:08.732Z,47.20
2018-09-30T09:52:38.280Z,47.00
2018-09-30T09:55:07.944Z,46.30
2018-09-30T09:57:36.519Z,46.80
2018-09-30T10:00:05.307Z,46.30
2018-09-30T10:02:34.068Z,45.90
2018-09-30T10:05:02.824Z,47.00
2018-09-30T10:07:31.767Z,47.50
2018-09-30T10:10:00.311Z,47.80
2018-09-30T10:12:28.880Z,47.60
2018-09-30T10:14:57.514Z,47.60
2018-09-30T10:17:26.081Z,47.70
2018-09-30T10:19:54.772Z,47.80
2018-09-30T10:22:23.380Z,47.00
2018-09-30T10:24:51.937Z,47.60
2018-09-30T10:27:20.542Z,47.20
2018-09-30T10:29:49.083Z,47.80
2018-09-30T10:32:17.742Z,47.80
2018-09-30T10:34:46.343Z,48.70
2018-09-30T10:37:14.902Z,48.10
2018-09-30T10:39:43.955Z,48.00
2018-09-30T10:42:12.500Z,48.40
2018-09-30T10:44:41.056Z,48.40
2018-09-30T10:47:09.676Z,48.80
2018-09-30T10:49:38.612Z,48.60
2018-09-30T10:52:07.291Z,48.40
2018-09-30T10:54:38.478Z,48.10
2018-09-30T10:57:07.248Z,48.80
2018-09-30T10:59:36.064Z,49.30
2018-09-30T11:02:04.768Z,49.40
2018-09-30T11:04:33.303Z,48.20
2018-09-30T11:07:02.141Z,48.80
2018-09-30T11:11:59.099Z,48.70
2018-09-30T11:14:27.696Z,48.60
2018-09-30T11:19:24.505Z,48.30
2018-09-30T11:21:53.210Z,48.80
2018-09-30T11:24:21.736Z,48.50
2018-09-30T11:26:50.314Z,48.80
2018-09-30T11:29:18.899Z,48.80
2018-09-30T11:31:48.635Z,49.30
2018-09-30T11:34:17.435Z,49.40
2018-09-30T11:39:14.292Z,48.00
2018-09-30T11:41:43.436Z,48.50
2018-09-30T11:44:12.813Z,48.30
2018-09-30T11:46:42.406Z,48.30
2018-09-30T11:49:11.049Z,49.40
2018-09-30T11:51:39.643Z,49.10
2018-09-30T11:54:08.250Z,47.90
2018-09-30T11:56:36.821Z,48.50
2018-09-30T11:59:05.468Z,49.30
2018-09-30T12:01:34.085Z,49.10
2018-09-30T12:04:02.643Z,49.80
2018-09-30T12:06:31.200Z,48.40
2018-09-30T12:08:59.784Z,47.10
2018-09-30T12:11:28.379Z,47.60
2018-09-30T12:13:56.961Z,47.60
2018-09-30T12:16:25.582Z,47.00
2018-09-30T12:18:54.176Z,47.50
2018-09-30T12:21:22.704Z,47.40
2018-09-30T12:23:51.234Z,47.40
2018-09-30T12:26:19.863Z,47.50
2018-09-30T12:28:48.842Z,47.40
2018-09-30T12:31:18.335Z,47.30
2018-09-30T12:33:47.626Z,46.60
2018-09-30T12:36:16.833Z,46.30
2018-09-30T12:38:45.422Z,47.00
2018-09-30T12:41:14.845Z,46.90
2018-09-30T12:43:43.523Z,45.80
2018-09-30T12:46:12.715Z,46.30
2018-09-30T12:48:41.512Z,46.10
2018-09-30T12:51:10.768Z,47.50
2018-09-30T12:53:39.372Z,47.00
2018-09-30T12:56:07.990Z,46.80
2018-09-30T12:58:36.623Z,46.90
2018-09-30T13:01:05.319Z,48.00
2018-09-30T13:03:33.922Z,48.30
2018-09-30T13:06:02.559Z,47.50
2018-09-30T13:08:31.222Z,47.50
2018-09-30T13:10:59.808Z,47.50
2018-09-30T13:13:28.411Z,47.50
2018-09-30T13:15:56.994Z,47.50
2018-09-30T13:18:25.663Z,47.50
2018-09-30T13:20:54.426Z,47.70
2018-09-30T13:23:22.903Z,46.50
2018-09-30T13:25:52.511Z,47.00
2018-09-30T13:28:21.109Z,46.10
2018-09-30T13:30:49.647Z,46.70
2018-09-30T13:33:18.275Z,47.20
2018-09-30T13:35:46.891Z,46.80
2018-09-30T13:38:15.456Z,46.80
2018-09-30T13:40:44.370Z,47.30
2018-09-30T13:43:12.829Z,47.30
2018-09-30T13:45:41.997Z,47.40
2018-09-30T13:48:10.612Z,47.30
2018-09-30T13:50:39.189Z,47.30
2018-09-30T13:53:08.047Z,47.30
2018-09-30T13:55:36.624Z,47.40
2018-09-30T13:58:05.271Z,47.40
2018-09-30T14:00:33.868Z,47.40
2018-09-30T14:03:02.447Z,46.80
2018-09-30T14:05:31.075Z,47.40
2018-09-30T14:07:59.672Z,47.40
2018-09-30T14:10:28.289Z,47.40
2018-09-30T14:12:56.965Z,47.40
2018-09-30T14:15:25.548Z,47.40
2018-09-30T14:17:54.134Z,47.40
2018-09-30T14:20:22.684Z,47.50
2018-09-30T14:22:51.437Z,47.50
2018-09-30T14:25:20.075Z,47.60
2018-09-30T14:27:48.706Z,47.60
2018-09-30T14:30:17.288Z,47.60
2018-09-30T14:32:45.879Z,47.60
2018-09-30T14:35:14.451Z,47.60
2018-09-30T14:37:43.105Z,47.60
2018-09-30T14:40:11.663Z,47.60
2018-09-30T14:42:40.249Z,47.60
2018-09-30T14:45:08.833Z,47.70
2018-09-30T14:47:37.433Z,47.70
2018-09-30T14:50:06.106Z,47.60
2018-09-30T14:52:34.676Z,47.70
2018-09-30T14:55:03.261Z,47.70
2018-09-30T14:57:31.847Z,47.80
2018-09-30T15:00:00.436Z,47.70
2018-09-30T15:02:29.152Z,48.40
2018-09-30T15:04:57.731Z,47.80
2018-09-30T15:07:26.364Z,47.80
2018-09-30T15:09:54.851Z,47.70
2018-09-30T15:12:23.419Z,46.00
2018-09-30T15:14:52.028Z,45.60
2018-09-30T15:17:20.659Z,45.80
2018-09-30T15:19:49.196Z,45.50
2018-09-30T15:22:17.775Z,43.80
2018-09-30T15:24:46.347Z,44.00
2018-09-30T15:27:14.947Z,44.00
2018-09-30T15:29:43.507Z,42.40
2018-09-30T15:32:12.195Z,42.30
2018-09-30T15:34:40.806Z,42.00
2018-09-30T15:37:09.352Z,41.10
2018-09-30T15:39:37.905Z,42.60
2018-09-30T15:42:06.860Z,42.10
2018-09-30T15:44:35.475Z,42.30
2018-09-30T15:47:04.096Z,42.30
2018-09-30T15:49:32.624Z,42.00
2018-09-30T15:52:01.245Z,41.10
2018-09-30T15:54:30.025Z,42.10
2018-09-30T15:56:58.564Z,42.10
2018-09-30T15:59:27.180Z,42.10
2018-09-30T16:01:56.397Z,42.60
2018-09-30T16:04:24.940Z,42.80
2018-09-30T16:06:53.567Z,42.90
2018-09-30T16:09:22.140Z,53.20
2018-09-30T16:11:50.699Z,53.40
2018-09-30T16:14:19.290Z,53.60
2018-09-30T16:16:47.899Z,53.60
2018-09-30T16:19:17.024Z,53.60
2018-09-30T16:21:45.681Z,53.20
2018-09-30T16:24:14.303Z,52.90
2018-09-30T16:26:42.876Z,52.80
2018-09-30T16:29:11.533Z,52.70
2018-09-30T16:31:40.099Z,52.10
2018-09-30T16:34:08.691Z,52.50
2018-09-30T16:36:37.324Z,52.40
2018-09-30T16:39:07.275Z,52.40
2018-09-30T16:41:35.799Z,52.10
2018-09-30T16:44:04.398Z,51.80
2018-09-30T16:46:33.063Z,51.50
2018-09-30T16:49:01.647Z,51.10
2018-09-30T16:51:30.288Z,51.10
2018-09-30T16:54:04.422Z,50.60
2018-09-30T16:56:33.110Z,49.80
2018-09-30T16:59:06.723Z,49.60
2018-09-30T17:01:35.474Z,49.30
2018-09-30T17:04:04.281Z,48.90
2018-09-30T17:06:32.937Z,49.60
2018-09-30T17:09:01.528Z,49.50
2018-09-30T17:11:30.398Z,49.30
2018-09-30T17:13:59.082Z,48.20
2018-09-30T17:16:27.742Z,48.00
2018-09-30T17:18:56.532Z,48.00
2018-09-30T17:21:25.372Z,48.50
2018-09-30T17:23:53.986Z,48.80
2018-09-30T17:26:22.561Z,48.50
2018-09-30T17:28:51.159Z,48.20
2018-09-30T17:31:19.739Z,48.00
2018-09-30T17:33:48.335Z,47.90
2018-09-30T17:36:16.947Z,47.80
2018-09-30T17:38:45.548Z,47.70
2018-09-30T17:41:14.207Z,47.60
2018-09-30T17:43:43.648Z,47.30
2018-09-30T17:46:12.324Z,47.90
2018-09-30T17:48:40.959Z,47.20
2018-09-30T17:51:09.619Z,47.10
2018-09-30T17:53:38.200Z,46.30
2018-09-30T17:56:06.850Z,46.80
2018-09-30T17:58:35.402Z,46.80
2018-09-30T18:01:03.965Z,46.80
2018-09-30T18:03:32.647Z,46.60
2018-09-30T18:06:01.213Z,46.60
2018-09-30T18:08:29.811Z,46.50
2018-09-30T18:10:58.463Z,46.20
2018-09-30T18:13:27.079Z,46.50
2018-09-30T18:15:55.765Z,45.50
2018-09-30T18:18:24.356Z,46.00
2018-09-30T18:20:53.459Z,46.00
2018-09-30T18:23:22.023Z,45.50
2018-09-30T18:25:50.589Z,46.10
2018-09-30T18:28:19.188Z,46.00
2018-09-30T18:30:47.755Z,46.20
2018-09-30T18:33:16.517Z,46.10
2018-09-30T18:35:45.132Z,46.20
2018-09-30T18:38:13.833Z,46.50
2018-09-30T18:40:45.790Z,46.80
2018-09-30T18:43:14.560Z,47.30
2018-09-30T18:45:43.355Z,47.30
2018-09-30T18:48:11.958Z,47.50
2018-09-30T18:50:40.914Z,47.20
2018-09-30T18:53:09.484Z,46.70
2018-09-30T18:55:38.063Z,46.50
2018-09-30T18:58:06.844Z,46.40
2018-09-30T19:00:35.443Z,46.10
2018-09-30T19:03:04.085Z,45.70
2018-09-30T19:05:32.784Z,45.60
2018-09-30T19:08:01.245Z,43.50
2018-09-30T19:10:29.788Z,42.60
2018-09-30T19:12:58.387Z,43.40
2018-09-30T19:15:27.208Z,44.00
2018-09-30T19:17:55.919Z,44.10
2018-09-30T19:20:24.664Z,44.70
2018-09-30T19:22:53.328Z,44.60
2018-09-30T19:25:21.853Z,44.60
2018-09-30T19:27:50.456Z,44.00
2018-09-30T19:30:19.064Z,44.00
2018-09-30T19:32:47.840Z,44.50
2018-09-30T19:35:16.651Z,44.30
2018-09-30T19:37:46.729Z,44.20
2018-09-30T19:40:21.883Z,44.10
2018-09-30T19:42:50.482Z,44.10
2018-09-30T19:45:19.356Z,44.30
2018-09-30T19:47:47.997Z,43.90
2018-09-30T19:50:17.055Z,43.90
2018-09-30T19:52:46.056Z,43.60
2018-09-30T19:55:14.735Z,43.60
2018-09-30T19:57:44.063Z,43.00
2018-09-30T20:00:12.721Z,43.60
2018-09-30T20:02:41.347Z,42.80
2018-09-30T20:05:10.043Z,43.30
2018-09-30T20:07:39.245Z,43.00
2018-09-30T20:10:07.801Z,43.50
2018-09-30T20:12:36.415Z,43.90
2018-09-30T20:15:05.001Z,44.00
2018-09-30T20:17:33.623Z,43.50
2018-09-30T20:20:02.224Z,44.00
2018-09-30T20:22:30.960Z,44.30
2018-09-30T20:24:59.611Z,44.40
2018-09-30T20:27:28.204Z,44.40
2018-09-30T20:29:56.820Z,44.10
2018-09-30T20:32:25.459Z,43.90
2018-09-30T20:34:54.034Z,43.90
2018-09-30T20:37:22.657Z,44.00
2018-09-30T20:39:51.238Z,43.80
2018-09-30T20:42:19.886Z,44.00
2018-09-30T20:44:48.464Z,43.10
2018-09-30T20:47:17.045Z,43.70
2018-09-30T20:49:45.664Z,43.60
2018-09-30T20:52:14.344Z,43.70
2018-09-30T20:54:42.922Z,43.50
2018-09-30T20:57:11.535Z,43.20
2018-09-30T20:59:40.112Z,43.70
2018-09-30T21:02:08.727Z,43.60
2018-09-30T21:04:37.300Z,43.60
2018-09-30T21:07:06.043Z,43.50
2018-09-30T21:09:34.596Z,43.10
2018-09-30T21:12:05.113Z,42.00
2018-09-30T21:14:33.712Z,42.70
2018-09-30T21:17:02.296Z,43.20
2018-09-30T21:19:31.396Z,41.30
2018-09-30T21:21:59.955Z,41.90
2018-09-30T21:24:28.523Z,42.00
2018-09-30T21:26:57.171Z,42.40
2018-09-30T21:29:25.770Z,43.20
2018-09-30T21:31:54.368Z,42.90
2018-09-30T21:34:22.988Z,42.80
2018-09-30T21:36:51.523Z,42.70
2018-09-30T21:39:20.187Z,42.40
2018-09-30T21:41:48.827Z,42.50
2018-09-30T21:44:17.500Z,43.00
2018-09-30T21:46:46.127Z,43.00
2018-09-30T21:49:15.617Z,43.50
2018-09-30T21:51:44.168Z,43.10
2018-09-30T21:54:12.780Z,43.10
2018-09-30T21:56:41.342Z,43.10
2018-09-30T21:59:09.944Z,42.80
2018-09-30T22:01:38.594Z,43.10
2018-09-30T22:04:07.109Z,43.40
2018-09-30T22:06:35.705Z,44.20
2018-09-30T22:09:05.215Z,44.80
2018-09-30T22:11:33.783Z,45.60
2018-09-30T22:14:02.349Z,46.30
2018-09-30T22:16:30.931Z,46.20
2018-09-30T22:18:59.587Z,45.60
2018-09-30T22:21:28.201Z,46.40
2018-09-30T22:23:56.760Z,46.30
2018-09-30T22:26:25.403Z,46.80
2018-09-30T22:28:54.031Z,47.20
2018-09-30T22:31:22.608Z,47.30
2018-09-30T22:33:51.171Z,47.50
2018-09-30T22:36:19.770Z,47.70
2018-09-30T22:38:48.363Z,47.40
2018-09-30T22:41:16.942Z,47.50
2018-09-30T22:43:45.577Z,48.00
2018-09-30T22:46:14.115Z,47.70
2018-09-30T22:48:42.760Z,48.20
2018-09-30T22:51:11.383Z,48.30
2018-09-30T22:53:39.951Z,48.30
2018-09-30T22:56:08.541Z,48.30
2018-09-30T22:58:37.091Z,48.40
2018-09-30T23:01:05.699Z,47.90
2018-09-30T23:03:34.307Z,48.50
2018-09-30T23:06:02.843Z,48.50
2018-09-30T23:08:31.398Z,48.50
2018-09-30T23:11:00.063Z,48.60
2018-09-30T23:13:28.595Z,48.60
2018-09-30T23:15:57.164Z,48.60
2018-09-30T23:18:26.286Z,48.00
2018-09-30T23:20:54.835Z,48.60
2018-09-30T23:23:23.600Z,48.60
2018-09-30T23:25:52.203Z,48.60
2018-09-30T23:28:20.784Z,48.50
2018-09-30T23:30:49.394Z,48.50
2018-09-30T23:33:18.471Z,47.90
2018-09-30T23:35:47.697Z,47.90
2018-09-30T23:38:16.867Z,47.90
2018-09-30T23:40:45.546Z,48.50
2018-09-30T23:43:14.126Z,48.50
2018-09-30T23:45:42.709Z,48.40
2018-09-30T23:48:11.270Z,47.80
2018-09-30T23:50:39.864Z,48.40
2018-09-30T23:53:08.483Z,48.30
2018-09-30T23:55:37.095Z,47.80
2018-09-30T23:58:12.725Z,47.80
